Time;durP1;ratioP1;P1;durP2;ratioP2;P2;SDS_P1;SDS_P2;PMS_P1;PMS_P2;Temp;Humidity;BMP_temperature;BMP_pressure;BME280_temperature;BME280_humidity;BME280_pressure;Samples;Min_cycle;Max_cycle;Signal;HPM_P1;HPM_P2
2023/12/21 00:01:50;;;;;;;2.55;0.65;;;7.40;99.90;;;;;;5032412;28;20791;-62
2023/12/21 00:04:18;;;;;;;0.50;0.50;;;7.50;99.90;;;;;;5032230;28;20745;-63
2023/12/21 00:06:46;;;;;;;1.13;0.70;;;7.50;99.90;;;;;;5032073;28;20289;-63
2023/12/21 00:09:14;;;;;;;2.15;0.60;;;7.50;99.90;;;;;;5031899;28;20779;-62
2023/12/21 00:11:43;;;;;;;5.20;0.85;;;7.50;99.90;;;;;;5032297;28;20307;-62
2023/12/21 00:14:11;;;;;;;2.10;0.70;;;7.50;99.90;;;;;;5031929;28;20696;-63
2023/12/21 00:16:39;;;;;;;2.15;0.90;;;7.60;99.90;;;;;;5024152;28;20231;-62
2023/12/21 00:19:07;;;;;;;2.97;0.90;;;7.50;99.90;;;;;;5031667;28;20237;-63
2023/12/21 00:21:34;;;;;;;0.73;0.70;;;7.50;99.90;;;;;;5031923;28;20313;-62
2023/12/21 00:24:03;;;;;;;2.05;1.00;;;7.50;99.90;;;;;;5031762;28;20246;-63
2023/12/21 00:26:30;;;;;;;1.65;0.77;;;7.60;99.90;;;;;;5031781;28;20261;-63
2023/12/21 00:29:00;;;;;;;1.67;0.60;;;7.50;99.90;;;;;;5031627;28;20292;-62
2023/12/21 00:31:27;;;;;;;2.50;0.73;;;7.50;99.90;;;;;;5042005;28;20255;-63
2023/12/21 00:33:55;;;;;;;3.72;0.80;;;7.50;99.90;;;;;;5051461;28;20208;-63
2023/12/21 00:36:24;;;;;;;1.83;0.63;;;7.50;99.90;;;;;;5051497;28;20655;-62
2023/12/21 00:38:51;;;;;;;0.85;0.60;;;7.50;99.90;;;;;;5051466;28;20221;-62
2023/12/21 00:41:19;;;;;;;2.15;0.77;;;7.50;99.90;;;;;;5051524;28;20257;-62
2023/12/21 00:43:47;;;;;;;0.50;0.50;;;7.50;99.90;;;;;;5051401;28;20617;-62
2023/12/21 00:46:16;;;;;;;1.55;0.52;;;7.50;99.90;;;;;;5051264;28;20206;-62
2023/12/21 00:48:44;;;;;;;0.65;0.52;;;7.50;99.90;;;;;;5051162;28;20226;-62
2023/12/21 00:51:12;;;;;;;0.70;0.30;;;7.40;99.90;;;;;;5052034;28;20264;-62
2023/12/21 00:53:40;;;;;;;1.27;0.30;;;7.40;99.90;;;;;;5023456;28;20264;-63
2023/12/21 00:56:08;;;;;;;0.82;0.50;;;7.40;99.90;;;;;;5031274;28;20206;-62
2023/12/21 00:58:36;;;;;;;0.65;0.40;;;7.40;99.90;;;;;;5031111;28;20306;-62
2023/12/21 01:01:05;;;;;;;0.52;0.50;;;7.40;99.90;;;;;;5031752;28;20245;-62
2023/12/21 01:03:34;;;;;;;0.47;0.22;;;7.40;99.90;;;;;;5031331;28;20260;-62
2023/12/21 01:06:02;;;;;;;0.55;0.30;;;7.40;99.90;;;;;;5031204;28;20661;-62
2023/12/21 01:08:30;;;;;;;1.85;0.30;;;7.40;99.90;;;;;;5031087;28;20718;-62
2023/12/21 01:10:58;;;;;;;0.43;0.35;;;7.50;99.90;;;;;;5031645;28;20289;-62
2023/12/21 01:13:26;;;;;;;0.30;0.30;;;7.50;99.90;;;;;;5030638;28;20660;-63
2023/12/21 01:15:54;;;;;;;0.40;0.20;;;7.40;99.90;;;;;;5035862;28;20206;-63
2023/12/21 01:18:21;;;;;;;0.20;0.20;;;7.50;99.90;;;;;;5050426;28;20239;-62
2023/12/21 01:20:51;;;;;;;1.58;0.28;;;7.40;99.90;;;;;;5051023;28;20252;-63
2023/12/21 01:23:19;;;;;;;0.45;0.20;;;7.40;99.90;;;;;;5050973;28;20208;-62
2023/12/21 01:25:46;;;;;;;1.17;0.20;;;7.50;99.90;;;;;;5050894;28;20289;-62
2023/12/21 01:28:14;;;;;;;0.17;0.17;;;7.50;99.90;;;;;;5050796;28;20261;-62
2023/12/21 01:30:42;;;;;;;0.20;0.20;;;7.50;99.90;;;;;;5044349;28;20256;-62
2023/12/21 01:33:10;;;;;;;0.20;0.20;;;7.50;99.90;;;;;;5031089;28;20205;-62
2023/12/21 01:35:38;;;;;;;0.10;0.10;;;7.50;99.90;;;;;;5031185;28;20215;-62
2023/12/21 01:38:07;;;;;;;0.95;0.20;;;7.50;99.90;;;;;;5031109;28;20660;-62
2023/12/21 01:40:35;;;;;;;0.30;0.10;;;7.50;99.90;;;;;;5030831;28;20238;-62
2023/12/21 01:43:03;;;;;;;0.15;0.15;;;7.50;99.90;;;;;;5031255;28;20223;-62
2023/12/21 01:45:31;;;;;;;0.20;0.10;;;7.60;99.90;;;;;;5030776;28;20211;-63
2023/12/21 01:47:59;;;;;;;2.25;0.13;;;7.60;99.90;;;;;;5031006;28;20249;-62
2023/12/21 01:50:27;;;;;;;0.10;0.10;;;7.60;99.90;;;;;;5030995;28;20210;-63
2023/12/21 01:52:55;;;;;;;0.13;0.10;;;7.50;99.90;;;;;;5030833;28;20574;-63
2023/12/21 01:55:24;;;;;;;0.20;0.20;;;7.60;99.90;;;;;;5030751;28;20290;-62
2023/12/21 01:57:52;;;;;;;0.10;0.10;;;7.60;99.90;;;;;;5035881;28;20209;-62
2023/12/21 02:00:20;;;;;;;2.58;0.32;;;7.60;99.90;;;;;;5050507;28;20249;-62
2023/12/21 02:02:48;;;;;;;2.28;0.10;;;7.60;99.90;;;;;;5051024;28;20253;-62
2023/12/21 02:05:16;;;;;;;1.90;0.20;;;7.60;99.90;;;;;;5050320;28;20289;-62
2023/12/21 02:07:44;;;;;;;0.73;0.10;;;7.60;99.90;;;;;;5050778;28;20210;-65
2023/12/21 02:10:12;;;;;;;0.10;0.10;;;7.60;99.90;;;;;;5050624;28;20221;-62
2023/12/21 02:12:42;;;;;;;1.23;0.10;;;7.60;99.90;;;;;;5050921;28;20221;-62
2023/12/21 02:15:10;;;;;;;0.40;0.10;;;7.70;99.90;;;;;;5050405;28;20237;-62
2023/12/21 02:17:39;;;;;;;0.10;0.10;;;7.70;99.90;;;;;;5050548;28;20206;-63
2023/12/21 02:20:08;;;;;;;0.10;0.10;;;7.70;99.90;;;;;;5050120;28;20234;-62
2023/12/21 02:22:36;;;;;;;0.10;0.10;;;7.70;99.90;;;;;;5028484;28;20292;-62
2023/12/21 02:25:06;;;;;;;0.13;0.13;;;7.70;99.90;;;;;;5030208;28;20202;-62
2023/12/21 02:27:34;;;;;;;0.10;0.10;;;7.80;99.90;;;;;;5033734;28;20210;-62
2023/12/21 02:30:02;;;;;;;0.03;0.03;;;7.80;99.90;;;;;;5032780;28;20280;-62
2023/12/21 02:32:30;;;;;;;0.10;0.10;;;7.90;99.90;;;;;;5032048;28;20252;-62
2023/12/21 02:34:58;;;;;;;0.10;0.10;;;7.90;99.90;;;;;;5033752;28;20206;-62
2023/12/21 02:37:26;;;;;;;1.45;0.10;;;7.90;99.90;;;;;;5033775;28;20211;-62
2023/12/21 02:39:54;;;;;;;0.03;0.03;;;7.90;99.90;;;;;;5033550;28;20226;-62
2023/12/21 02:42:23;;;;;;;0.03;0.03;;;8.00;99.90;;;;;;5033722;28;20325;-62
2023/12/21 02:44:51;;;;;;;0.08;0.08;;;8.00;99.90;;;;;;5033634;28;20289;-62
2023/12/21 02:47:18;;;;;;;0.43;0.10;;;8.00;99.90;;;;;;5034078;28;20230;-62
2023/12/21 02:49:46;;;;;;;0.10;0.10;;;8.00;99.90;;;;;;5033432;28;20774;-62
2023/12/21 02:52:18;;;;;;;0.35;0.10;;;8.00;99.90;;;;;;5034123;28;20195;-62
2023/12/21 02:54:45;;;;;;;0.10;0.10;;;8.00;99.90;;;;;;5033428;28;20213;-62
2023/12/21 02:57:13;;;;;;;0.00;0.00;;;8.00;99.90;;;;;;5033780;28;20202;-62
2023/12/21 02:59:44;;;;;;;0.20;0.10;;;8.00;99.90;;;;;;5033452;28;20306;-62
2023/12/21 03:02:12;;;;;;;0.10;0.10;;;8.10;99.90;;;;;;5033872;28;20215;-62
2023/12/21 03:04:40;;;;;;;1.25;0.20;;;8.10;99.90;;;;;;5033143;28;20716;-62
2023/12/21 03:07:08;;;;;;;0.10;0.10;;;8.10;99.90;;;;;;5033339;28;20203;-62
2023/12/21 03:09:36;;;;;;;0.22;0.10;;;8.10;99.90;;;;;;5033275;28;20226;-62
2023/12/21 03:12:04;;;;;;;0.00;0.00;;;8.10;99.90;;;;;;5033517;28;20226;-61
2023/12/21 03:14:32;;;;;;;0.13;0.13;;;8.10;99.90;;;;;;5032916;28;20268;-62
2023/12/21 03:17:01;;;;;;;0.10;0.10;;;8.10;99.90;;;;;;5033267;28;20688;-62
2023/12/21 03:19:29;;;;;;;0.10;0.10;;;8.20;99.90;;;;;;5032741;28;20315;-62
2023/12/21 03:21:57;;;;;;;0.20;0.10;;;8.20;99.90;;;;;;5033488;28;20206;-62
2023/12/21 03:24:25;;;;;;;0.43;0.10;;;8.20;99.90;;;;;;5032678;28;20238;-62
2023/12/21 03:26:53;;;;;;;0.10;0.10;;;8.20;99.90;;;;;;5033044;28;20710;-62
2023/12/21 03:29:21;;;;;;;0.00;0.00;;;8.20;99.90;;;;;;5032732;28;20222;-63
2023/12/21 03:31:50;;;;;;;0.10;0.10;;;8.20;99.90;;;;;;5028707;28;20202;-62
2023/12/21 03:34:19;;;;;;;0.08;0.08;;;8.20;99.90;;;;;;5033127;28;20214;-62
2023/12/21 03:36:47;;;;;;;4.03;0.40;;;8.20;99.90;;;;;;5032487;28;20199;-62
2023/12/21 03:39:15;;;;;;;0.10;0.10;;;8.20;99.90;;;;;;5032621;28;20226;-62
2023/12/21 03:41:43;;;;;;;0.20;0.08;;;8.20;99.90;;;;;;5033043;28;20289;-62
2023/12/21 03:44:11;;;;;;;0.10;0.10;;;8.20;99.90;;;;;;5032522;28;20309;-62
2023/12/21 03:46:39;;;;;;;0.10;0.10;;;8.20;99.90;;;;;;5032554;28;20627;-62
2023/12/21 03:49:07;;;;;;;0.20;0.20;;;8.20;99.90;;;;;;5032598;28;20272;-62
2023/12/21 03:51:36;;;;;;;0.10;0.10;;;8.30;99.90;;;;;;5032786;28;20214;-62
2023/12/21 03:54:04;;;;;;;0.10;0.10;;;8.20;99.90;;;;;;5032523;28;20229;-62
2023/12/21 03:56:32;;;;;;;0.10;0.10;;;8.30;99.90;;;;;;5032421;28;20294;-62
2023/12/21 03:59:00;;;;;;;0.00;0.00;;;8.20;99.90;;;;;;5031948;28;20268;-62
2023/12/21 04:01:29;;;;;;;0.22;0.10;;;8.30;99.90;;;;;;5032293;28;20209;-62
2023/12/21 04:03:57;;;;;;;2.85;0.15;;;8.30;99.90;;;;;;5032129;28;20337;-62
2023/12/21 04:06:25;;;;;;;0.10;0.10;;;8.30;99.90;;;;;;5032335;28;20199;-62
2023/12/21 04:08:55;;;;;;;0.10;0.10;;;8.30;99.90;;;;;;5031926;28;20272;-62
2023/12/21 04:11:22;;;;;;;0.10;0.10;;;8.30;99.90;;;;;;5032260;28;20289;-62
2023/12/21 04:13:50;;;;;;;0.40;0.10;;;8.30;99.90;;;;;;5032000;28;20226;-62
2023/12/21 04:16:18;;;;;;;0.75;0.10;;;8.40;99.90;;;;;;5032157;28;20257;-62
2023/12/21 04:18:46;;;;;;;0.10;0.10;;;8.40;99.90;;;;;;5031767;28;20238;-62
2023/12/21 04:21:14;;;;;;;0.20;0.20;;;8.40;99.90;;;;;;5032081;28;20648;-62
2023/12/21 04:23:42;;;;;;;0.20;0.20;;;8.40;99.90;;;;;;5031606;28;20226;-61
2023/12/21 04:26:18;;;;;;;0.10;0.10;;;8.40;99.90;;;;;;5031825;28;20294;-62
2023/12/21 04:28:46;;;;;;;0.15;0.15;;;8.40;99.90;;;;;;5031468;28;20230;-62
2023/12/21 04:31:19;;;;;;;0.10;0.10;;;8.40;99.90;;;;;;5026926;28;20639;-62
2023/12/21 04:33:49;;;;;;;0.08;0.08;;;8.50;99.90;;;;;;5031698;28;20198;-62
2023/12/21 04:36:17;;;;;;;0.10;0.10;;;8.50;99.90;;;;;;5031744;28;20215;-62
2023/12/21 04:38:48;;;;;;;0.15;0.15;;;8.50;99.90;;;;;;5031265;28;20230;-62
2023/12/21 04:41:18;;;;;;;0.10;0.10;;;8.50;99.90;;;;;;5031808;28;20238;-62
2023/12/21 04:43:46;;;;;;;0.10;0.10;;;8.50;99.90;;;;;;5031691;28;20226;-62
2023/12/21 04:46:14;;;;;;;0.10;0.10;;;8.50;99.90;;;;;;5031714;28;20237;-62
2023/12/21 04:48:41;;;;;;;0.90;0.10;;;8.50;99.90;;;;;;5030619;28;20234;-62
2023/12/21 04:51:14;;;;;;;0.10;0.10;;;8.60;99.90;;;;;;5031545;28;20261;-62
2023/12/21 04:53:42;;;;;;;0.10;0.10;;;8.50;99.90;;;;;;5031543;28;20250;-61
2023/12/21 04:56:10;;;;;;;0.88;0.10;;;8.50;99.90;;;;;;5031545;28;20206;-62
2023/12/21 04:58:40;;;;;;;0.10;0.10;;;8.50;99.90;;;;;;5031196;28;20292;-62
2023/12/21 05:01:08;;;;;;;0.20;0.10;;;8.50;99.90;;;;;;5031657;28;20211;-62
2023/12/21 05:03:36;;;;;;;1.65;0.38;;;8.50;99.90;;;;;;5031419;28;20261;-62
2023/12/21 05:06:05;;;;;;;0.10;0.10;;;8.50;99.90;;;;;;5030915;28;20672;-62
2023/12/21 05:08:33;;;;;;;0.22;0.10;;;8.40;99.90;;;;;;5031028;28;20313;-62
2023/12/21 05:11:02;;;;;;;0.10;0.10;;;8.30;99.90;;;;;;5031392;28;20213;-63
2023/12/21 05:13:31;;;;;;;0.08;0.08;;;8.30;99.90;;;;;;5031326;28;20210;-62
2023/12/21 05:16:00;;;;;;;0.55;0.10;;;8.30;99.90;;;;;;5030966;28;20202;-62
2023/12/21 05:18:28;;;;;;;0.10;0.10;;;8.30;99.90;;;;;;5031403;28;20313;-67
2023/12/21 05:20:56;;;;;;;0.10;0.10;;;8.20;99.90;;;;;;5020963;28;21036;-62
2023/12/21 05:23:24;;;;;;;0.10;0.10;;;8.20;99.90;;;;;;5028615;28;20219;-62
2023/12/21 05:25:52;;;;;;;0.30;0.10;;;8.20;99.90;;;;;;5030644;28;20726;-62
2023/12/21 05:28:20;;;;;;;0.10;0.10;;;8.20;99.90;;;;;;5031023;28;20639;-62
2023/12/21 05:30:48;;;;;;;0.65;0.10;;;8.10;99.90;;;;;;5027785;28;20215;-62
2023/12/21 05:33:17;;;;;;;1.90;0.20;;;8.10;99.90;;;;;;5022737;28;20206;-62
2023/12/21 05:35:45;;;;;;;0.10;0.10;;;8.20;99.90;;;;;;5027805;28;20313;-62
2023/12/21 05:38:13;;;;;;;0.17;0.17;;;8.20;99.90;;;;;;5030923;28;21016;-62
2023/12/21 05:40:41;;;;;;;0.10;0.10;;;8.20;99.90;;;;;;5030609;28;20753;-62
2023/12/21 05:43:09;;;;;;;0.10;0.10;;;8.20;99.90;;;;;;5030933;28;20286;-62
2023/12/21 05:45:37;;;;;;;0.13;0.10;;;8.20;99.90;;;;;;5030700;28;20217;-62
2023/12/21 05:48:05;;;;;;;0.10;0.10;;;8.20;99.90;;;;;;5031188;28;20337;-62
2023/12/21 05:50:35;;;;;;;0.10;0.10;;;8.20;99.90;;;;;;5030637;28;20203;-62
2023/12/21 05:53:03;;;;;;;0.17;0.10;;;8.30;99.90;;;;;;5031030;28;20234;-62
2023/12/21 05:55:31;;;;;;;0.35;0.20;;;8.40;99.90;;;;;;5028978;28;20253;-63
2023/12/21 05:57:59;;;;;;;0.10;0.10;;;8.40;99.90;;;;;;5024793;28;20673;-62
2023/12/21 06:00:27;;;;;;;0.10;0.10;;;8.50;99.90;;;;;;5032426;28;20711;-62
2023/12/21 06:02:54;;;;;;;0.10;0.10;;;8.60;99.90;;;;;;5033315;28;20329;-62
2023/12/21 06:05:22;;;;;;;0.10;0.10;;;8.60;99.90;;;;;;5033063;28;20318;-62
2023/12/21 06:07:52;;;;;;;0.10;0.10;;;8.70;99.90;;;;;;5034094;28;20293;-62
2023/12/21 06:10:20;;;;;;;0.10;0.10;;;8.70;99.90;;;;;;5033899;28;20207;-62
2023/12/21 06:12:48;;;;;;;1.23;0.10;;;8.70;99.90;;;;;;5034442;28;20211;-62
2023/12/21 06:15:17;;;;;;;0.13;0.10;;;8.80;99.90;;;;;;5034020;28;20199;-62
2023/12/21 06:17:44;;;;;;;0.10;0.10;;;8.80;99.90;;;;;;5033698;28;20211;-62
2023/12/21 06:20:12;;;;;;;0.10;0.10;;;8.80;99.90;;;;;;5033813;28;20227;-66
2023/12/21 06:22:40;;;;;;;1.55;0.10;;;8.80;99.90;;;;;;5034129;28;20238;-62
2023/12/21 06:25:11;;;;;;;0.10;0.10;;;8.80;99.90;;;;;;5033735;28;20229;-62
2023/12/21 06:27:39;;;;;;;0.10;0.10;;;8.80;99.90;;;;;;5034146;28;20285;-62
2023/12/21 06:30:08;;;;;;;0.10;0.10;;;8.80;99.90;;;;;;5031815;28;20226;-63
2023/12/21 06:32:36;;;;;;;0.10;0.10;;;8.80;99.90;;;;;;5029389;28;20286;-62
2023/12/21 06:35:05;;;;;;;0.10;0.10;;;8.80;99.90;;;;;;5033379;28;20199;-62
2023/12/21 06:37:33;;;;;;;0.13;0.13;;;8.80;99.90;;;;;;5028448;28;20580;-63
2023/12/21 06:40:04;;;;;;;1.08;0.20;;;8.90;99.90;;;;;;5032800;28;20222;-62
2023/12/21 06:42:34;;;;;;;0.30;0.30;;;8.90;99.90;;;;;;5031512;28;20206;-62
2023/12/21 06:45:03;;;;;;;0.30;0.30;;;8.90;99.90;;;;;;5030407;28;20226;-62
2023/12/21 06:47:31;;;;;;;0.22;0.20;;;8.90;99.90;;;;;;5033898;28;20221;-62
2023/12/21 06:49:59;;;;;;;1.77;0.20;;;8.90;99.90;;;;;;5032904;28;20226;-62
2023/12/21 06:52:27;;;;;;;0.10;0.10;;;8.90;99.90;;;;;;5034068;28;20298;-62
2023/12/21 06:54:55;;;;;;;0.20;0.20;;;9.00;99.90;;;;;;5033190;28;20734;-62
2023/12/21 06:57:23;;;;;;;0.38;0.20;;;8.90;99.90;;;;;;5033664;28;20305;-62
2023/12/21 06:59:52;;;;;;;0.20;0.20;;;8.90;99.90;;;;;;5033273;28;20234;-66
2023/12/21 07:02:20;;;;;;;0.10;0.10;;;9.00;99.90;;;;;;5033438;28;20214;-66
2023/12/21 07:04:48;;;;;;;1.13;0.30;;;9.00;99.90;;;;;;5033126;28;20230;-66
2023/12/21 07:07:16;;;;;;;0.30;0.20;;;9.00;99.90;;;;;;5033595;28;20262;-66
2023/12/21 07:09:44;;;;;;;0.30;0.30;;;9.00;99.90;;;;;;5033076;28;20222;-66
2023/12/21 07:12:11;;;;;;;0.20;0.20;;;9.00;99.90;;;;;;5032822;28;20207;-66
2023/12/21 07:14:40;;;;;;;0.10;0.10;;;9.00;99.90;;;;;;5032848;28;20211;-66
2023/12/21 07:17:09;;;;;;;0.20;0.20;;;9.00;99.90;;;;;;5033533;28;20233;-66
2023/12/21 07:19:37;;;;;;;1.17;0.10;;;9.00;99.90;;;;;;5032824;28;20235;-65
2023/12/21 07:22:05;;;;;;;0.10;0.10;;;9.00;99.90;;;;;;5033207;28;20207;-66
2023/12/21 07:24:33;;;;;;;0.20;0.20;;;9.00;99.90;;;;;;5032753;28;20233;-65
2023/12/21 07:27:01;;;;;;;0.03;0.03;;;9.10;99.90;;;;;;5032924;28;20210;-66
2023/12/21 07:29:29;;;;;;;0.10;0.10;;;9.10;99.90;;;;;;5032578;28;20226;-66
2023/12/21 07:31:57;;;;;;;0.22;0.20;;;9.20;99.90;;;;;;5026797;28;20245;-66
2023/12/21 07:34:26;;;;;;;0.10;0.10;;;9.10;99.90;;;;;;5032875;28;20297;-66
2023/12/21 07:36:54;;;;;;;0.10;0.10;;;9.10;99.90;;;;;;5032642;28;20647;-66
2023/12/21 07:39:22;;;;;;;0.10;0.03;;;9.20;99.90;;;;;;5032743;28;20273;-65
2023/12/21 07:41:49;;;;;;;0.10;0.10;;;9.20;99.90;;;;;;5032484;28;20302;-66
2023/12/21 07:44:17;;;;;;;1.17;0.20;;;9.20;99.90;;;;;;5032637;28;20245;-66
2023/12/21 07:46:45;;;;;;;0.10;0.10;;;9.20;99.90;;;;;;5032531;28;20293;-66
2023/12/21 07:49:13;;;;;;;0.20;0.20;;;9.20;99.90;;;;;;5032678;28;20309;-66
2023/12/21 07:51:42;;;;;;;0.00;0.00;;;9.20;99.90;;;;;;5032404;28;20712;-66
2023/12/21 07:54:12;;;;;;;0.10;0.10;;;9.30;99.90;;;;;;5032616;28;20620;-66
2023/12/21 07:56:40;;;;;;;0.08;0.08;;;9.30;99.90;;;;;;5031829;28;20645;-66
2023/12/21 07:59:08;;;;;;;0.10;0.10;;;9.20;99.90;;;;;;5032491;28;20222;-65
2023/12/21 08:01:36;;;;;;;0.10;0.10;;;9.20;99.90;;;;;;5032513;28;20261;-66
2023/12/21 08:04:05;;;;;;;0.10;0.10;;;9.20;99.90;;;;;;5032527;28;20202;-66
2023/12/21 08:06:33;;;;;;;0.10;0.10;;;9.20;99.90;;;;;;5031853;28;20732;-66
2023/12/21 08:09:02;;;;;;;0.10;0.10;;;9.20;99.90;;;;;;5031902;28;20226;-66
2023/12/21 08:11:30;;;;;;;0.10;0.10;;;9.20;99.90;;;;;;5031985;28;20738;-67
2023/12/21 08:13:57;;;;;;;1.08;0.20;;;9.20;99.90;;;;;;5032314;28;20214;-66
2023/12/21 08:16:25;;;;;;;0.10;0.10;;;9.20;99.90;;;;;;5031959;28;20237;-64
2023/12/21 08:18:54;;;;;;;0.10;0.10;;;9.20;99.90;;;;;;5031710;28;20726;-65
2023/12/21 08:21:22;;;;;;;0.10;0.10;;;9.20;99.90;;;;;;5031915;28;20672;-65
2023/12/21 08:23:50;;;;;;;0.20;0.20;;;9.20;99.90;;;;;;5030988;28;20222;-64
2023/12/21 08:26:20;;;;;;;0.10;0.10;;;9.20;99.90;;;;;;5031791;28;20230;-65
2023/12/21 08:28:48;;;;;;;0.35;0.10;;;9.30;99.90;;;;;;5031884;28;20262;-64
2023/12/21 08:31:24;;;;;;;0.20;0.20;;;9.30;99.90;;;;;;5025077;28;20667;-64
2023/12/21 08:33:52;;;;;;;0.80;0.20;;;9.30;99.90;;;;;;5031719;28;20691;-64
2023/12/21 08:36:20;;;;;;;0.20;0.20;;;9.30;99.90;;;;;;5031880;28;20281;-65
2023/12/21 08:38:48;;;;;;;0.08;0.08;;;9.40;99.90;;;;;;5031535;28;20262;-65
2023/12/21 08:41:16;;;;;;;0.35;0.10;;;9.40;99.90;;;;;;5031584;28;20664;-65
2023/12/21 08:43:46;;;;;;;0.10;0.10;;;9.40;99.90;;;;;;5031671;28;20210;-65
2023/12/21 08:46:14;;;;;;;0.30;0.30;;;9.40;99.90;;;;;;5031152;28;20328;-65
2023/12/21 08:48:42;;;;;;;0.10;0.10;;;9.40;99.90;;;;;;5031102;28;20234;-66
2023/12/21 08:51:10;;;;;;;0.10;0.10;;;9.40;99.90;;;;;;5031316;28;20206;-66
2023/12/21 08:53:37;;;;;;;1.25;0.10;;;9.50;99.90;;;;;;5031632;28;20237;-67
2023/12/21 08:56:06;;;;;;;0.10;0.10;;;9.50;99.90;;;;;;5031121;28;20284;-66
2023/12/21 08:58:35;;;;;;;0.10;0.10;;;9.50;99.90;;;;;;5031347;28;20654;-66
2023/12/21 09:01:05;;;;;;;0.10;0.10;;;9.50;99.90;;;;;;5030945;28;20203;-67
2023/12/21 09:03:33;;;;;;;0.20;0.10;;;9.60;99.90;;;;;;5031643;28;20214;-65
2023/12/21 09:06:02;;;;;;;0.13;0.13;;;9.50;99.90;;;;;;5030993;28;20233;-67
2023/12/21 09:08:30;;;;;;;1.85;0.20;;;9.50;99.90;;;;;;5031619;28;20587;-67
2023/12/21 09:10:58;;;;;;;0.10;0.10;;;9.50;99.90;;;;;;5031271;28;20206;-65
2023/12/21 09:13:25;;;;;;;0.40;0.10;;;9.50;99.90;;;;;;5031313;28;20218;-66
2023/12/21 09:15:53;;;;;;;0.10;0.10;;;9.60;99.90;;;;;;5030376;28;20210;-66
2023/12/21 09:18:23;;;;;;;0.10;0.10;;;9.60;99.90;;;;;;5031074;28;20270;-67
2023/12/21 09:20:51;;;;;;;0.88;0.30;;;9.60;99.90;;;;;;5030561;28;20647;-66
2023/12/21 09:23:18;;;;;;;0.10;0.10;;;9.60;99.90;;;;;;5029656;28;20281;-66
2023/12/21 09:25:46;;;;;;;0.10;0.10;;;9.60;99.90;;;;;;5030054;28;20309;-66
2023/12/21 09:28:17;;;;;;;0.08;0.08;;;9.60;99.90;;;;;;5030989;28;20233;-66
2023/12/21 09:30:45;;;;;;;0.10;0.10;;;9.50;99.90;;;;;;5023786;28;20211;-66
2023/12/21 09:33:13;;;;;;;0.00;0.00;;;9.60;99.90;;;;;;5031352;28;20202;-66
2023/12/21 09:35:43;;;;;;;0.10;0.10;;;9.60;99.90;;;;;;5033502;28;20202;-66
2023/12/21 09:38:10;;;;;;;0.10;0.10;;;9.50;99.90;;;;;;5025337;28;20206;-66
2023/12/21 09:40:39;;;;;;;1.10;0.15;;;9.60;99.90;;;;;;5034145;28;20294;-66
2023/12/21 09:43:07;;;;;;;0.15;0.10;;;9.60;99.90;;;;;;5033124;28;20276;-66
2023/12/21 09:45:42;;;;;;;0.00;0.00;;;9.60;99.90;;;;;;5030799;28;20226;-66
2023/12/21 09:48:10;;;;;;;1.65;0.10;;;9.60;99.90;;;;;;5034694;28;20746;-66
2023/12/21 09:50:38;;;;;;;0.10;0.10;;;9.60;99.90;;;;;;5034668;28;20226;-59
2023/12/21 09:53:08;;;;;;;0.98;0.10;;;9.60;99.90;;;;;;5027654;28;20206;-58
2023/12/21 09:55:37;;;;;;;1.38;0.20;;;9.80;99.90;;;;;;5034211;28;20214;-58
2023/12/21 09:58:05;;;;;;;0.20;0.20;;;10.00;99.90;;;;;;5034458;28;20214;-59
2023/12/21 10:00:34;;;;;;;0.10;0.10;;;10.20;99.90;;;;;;5034067;28;20628;-65
2023/12/21 10:03:03;;;;;;;0.20;0.20;;;10.30;99.90;;;;;;5033672;28;20207;-65
2023/12/21 10:05:31;;;;;;;0.13;0.10;;;10.30;99.90;;;;;;5033621;28;20288;-65
2023/12/21 10:07:59;;;;;;;2.33;0.20;;;10.20;99.90;;;;;;5033685;28;20680;-65
2023/12/21 10:10:28;;;;;;;1.08;0.20;;;10.10;99.90;;;;;;5034056;28;20248;-65
2023/12/21 10:12:57;;;;;;;0.10;0.10;;;10.00;99.90;;;;;;5033718;28;20209;-65
2023/12/21 10:15:24;;;;;;;0.10;0.10;;;9.90;99.90;;;;;;5032849;28;20285;-65
2023/12/21 10:17:52;;;;;;;0.55;0.00;;;9.90;99.90;;;;;;5032422;28;20211;-65
2023/12/21 10:20:23;;;;;;;0.20;0.10;;;10.00;99.90;;;;;;5033585;28;20731;-65
2023/12/21 10:22:51;;;;;;;0.00;0.00;;;10.00;99.90;;;;;;5034044;28;20290;-65
2023/12/21 10:25:21;;;;;;;0.00;0.00;;;10.00;99.90;;;;;;5033221;28;20198;-65
2023/12/21 10:27:54;;;;;;;0.10;0.00;;;10.10;99.90;;;;;;5033615;28;20227;-65
2023/12/21 10:30:23;;;;;;;0.10;0.10;;;10.10;99.90;;;;;;5028650;28;20694;-65
2023/12/21 10:32:52;;;;;;;0.10;0.10;;;10.20;99.90;;;;;;5030380;28;20253;-65
2023/12/21 10:35:24;;;;;;;0.00;0.00;;;10.30;99.90;;;;;;5033820;28;20210;-65
2023/12/21 10:37:52;;;;;;;0.17;0.17;;;10.30;99.90;;;;;;5032793;28;20249;-65
2023/12/21 10:40:22;;;;;;;1.45;0.00;;;10.30;99.90;;;;;;5033907;28;20203;-65
2023/12/21 10:42:51;;;;;;;0.00;0.00;;;10.30;99.90;;;;;;5033658;28;20289;-65
2023/12/21 10:45:21;;;;;;;1.08;0.10;;;10.20;99.90;;;;;;5033399;28;20226;-65
2023/12/21 10:48:07;;;;;;;0.05;0.05;;;10.10;99.90;;;;;;5032965;28;20226;-65
2023/12/21 10:50:35;;;;;;;0.10;0.10;;;10.10;99.90;;;;;;5033610;28;20210;-65
2023/12/21 10:53:04;;;;;;;0.10;0.10;;;10.00;99.90;;;;;;5033936;28;20209;-65
2023/12/21 10:55:32;;;;;;;0.20;0.20;;;9.90;99.90;;;;;;5033332;28;20740;-65
2023/12/21 10:58:01;;;;;;;0.60;0.28;;;9.90;99.90;;;;;;5033522;28;20207;-65
2023/12/21 11:00:30;;;;;;;0.55;0.20;;;9.80;99.90;;;;;;5033555;28;20206;-65
2023/12/21 11:02:58;;;;;;;0.55;0.22;;;9.80;99.90;;;;;;5033696;28;20207;-65
2023/12/21 11:05:27;;;;;;;1.95;0.10;;;9.80;99.90;;;;;;5033157;28;20202;-65
2023/12/21 11:07:57;;;;;;;0.20;0.20;;;9.80;99.90;;;;;;5033235;28;20284;-65
2023/12/21 11:10:24;;;;;;;1.55;0.30;;;9.80;99.90;;;;;;5033173;28;20226;-65
2023/12/21 11:12:52;;;;;;;0.80;0.10;;;9.80;99.90;;;;;;5033624;28;20650;-65
2023/12/21 11:15:21;;;;;;;1.08;0.10;;;9.80;99.90;;;;;;5033067;28;20246;-65
2023/12/21 11:17:51;;;;;;;0.10;0.10;;;9.80;99.90;;;;;;5033330;28;20202;-65
2023/12/21 11:20:24;;;;;;;0.00;0.00;;;9.80;99.90;;;;;;5033005;28;20811;-65
2023/12/21 11:23:08;;;;;;;0.00;0.00;;;9.90;99.90;;;;;;5033426;28;20230;-65
2023/12/21 11:25:36;;;;;;;0.35;0.35;;;9.90;99.90;;;;;;5032961;28;20305;-65
2023/12/21 11:28:05;;;;;;;0.40;0.10;;;10.00;99.90;;;;;;5033067;28;20231;-65
2023/12/21 11:30:32;;;;;;;0.88;0.00;;;10.00;99.90;;;;;;5028388;28;20199;-65
2023/12/21 11:33:06;;;;;;;0.10;0.10;;;10.10;99.90;;;;;;5031680;28;20293;-65
2023/12/21 11:35:34;;;;;;;0.10;0.10;;;10.10;99.90;;;;;;5032436;28;20253;-65
2023/12/21 11:38:05;;;;;;;0.40;0.10;;;10.10;99.90;;;;;;5032938;28;20202;-65
2023/12/21 11:40:33;;;;;;;0.10;0.10;;;10.10;99.90;;;;;;5032959;28;20207;-65
2023/12/21 11:43:02;;;;;;;0.20;0.10;;;10.00;99.90;;;;;;5032955;28;20660;-66
2023/12/21 11:45:31;;;;;;;0.10;0.10;;;10.00;99.90;;;;;;5032457;28;20203;-65
2023/12/21 11:48:00;;;;;;;1.30;0.10;;;10.00;99.90;;;;;;5032430;28;20266;-65
2023/12/21 11:50:33;;;;;;;0.13;0.10;;;10.00;99.90;;;;;;5032698;28;20206;-66
2023/12/21 11:53:06;;;;;;;0.35;0.20;;;10.00;99.90;;;;;;5032877;28;20265;-63
2023/12/21 11:55:43;;;;;;;0.10;0.10;;;10.40;99.90;;;;;;5032270;28;20213;-62
2023/12/21 11:58:16;;;;;;;0.10;0.10;;;10.80;99.90;;;;;;5032082;28;20202;-62
2023/12/21 12:00:45;;;;;;;1.75;0.10;;;11.00;99.90;;;;;;5032399;28;20661;-65
2023/12/21 12:03:14;;;;;;;0.00;0.00;;;11.10;99.90;;;;;;5032568;28;20221;-66
2023/12/21 12:05:44;;;;;;;0.00;0.00;;;11.00;99.90;;;;;;5031908;28;20617;-65
2023/12/21 12:08:12;;;;;;;0.10;0.10;;;10.70;99.90;;;;;;5032055;28;20641;-66
2023/12/21 12:10:40;;;;;;;0.08;0.08;;;10.60;99.90;;;;;;5031975;28;20207;-66
2023/12/21 12:13:09;;;;;;;0.10;0.10;;;10.40;99.90;;;;;;5032549;28;20211;-66
2023/12/21 12:15:37;;;;;;;0.38;0.10;;;10.30;99.90;;;;;;5031753;28;20683;-66
2023/12/21 12:18:08;;;;;;;0.28;0.10;;;10.30;99.90;;;;;;5031702;28;20230;-65
2023/12/21 12:20:43;;;;;;;0.88;0.10;;;10.30;99.90;;;;;;5029233;28;20214;-65
2023/12/21 12:23:11;;;;;;;0.22;0.13;;;10.20;99.90;;;;;;5031393;28;20293;-65
2023/12/21 12:25:39;;;;;;;0.05;0.05;;;10.10;99.90;;;;;;5031254;28;20341;-64
2023/12/21 12:28:17;;;;;;;2.40;0.10;;;10.10;99.90;;;;;;5031721;28;20309;-65
2023/12/21 12:30:45;;;;;;;0.00;0.00;;;10.00;99.90;;;;;;5031326;28;20206;-66
2023/12/21 12:33:13;;;;;;;0.28;0.10;;;10.00;99.90;;;;;;5031680;28;20202;-65
2023/12/21 12:35:43;;;;;;;0.20;0.20;;;9.90;99.90;;;;;;5030451;28;20213;-66
2023/12/21 12:38:11;;;;;;;4.13;0.20;;;9.90;99.90;;;;;;5031280;28;20206;-65
2023/12/21 12:40:38;;;;;;;1.27;0.10;;;9.90;99.90;;;;;;5031135;28;20691;-64
2023/12/21 12:43:07;;;;;;;0.10;0.10;;;9.90;99.90;;;;;;5031395;28;20207;-64
2023/12/21 12:45:35;;;;;;;1.95;0.17;;;9.90;99.90;;;;;;5030766;28;20577;-64
2023/12/21 12:48:03;;;;;;;0.03;0.03;;;9.90;99.90;;;;;;5035745;28;20254;-64
2023/12/21 12:50:32;;;;;;;0.20;0.20;;;9.90;99.90;;;;;;5030998;28;20211;-65
2023/12/21 12:53:03;;;;;;;0.55;0.20;;;9.90;99.90;;;;;;5031578;28;20210;-65
2023/12/21 12:55:30;;;;;;;0.10;0.10;;;9.90;99.90;;;;;;5031193;28;20269;-64
2023/12/21 12:57:59;;;;;;;0.10;0.10;;;9.90;99.90;;;;;;5030759;28;20593;-66
2023/12/21 13:00:26;;;;;;;0.65;0.20;;;9.90;99.90;;;;;;5031035;28;20788;-65
2023/12/21 13:02:54;;;;;;;0.13;0.13;;;9.90;99.90;;;;;;5031352;28;20649;-64